Linder, Arkansas
Current Conditions -  °F | °C
As of 12:58 AM on Friday 28 Nov 2014 (Local Time) from KLRF Reporting Station
Clear Clear  
Wind Chill: 29°   Ceiling: Unl
Heat Index: 29°   Visibility: 7mi
Dew Point: 27°   Wind: 1mph
Humidity: 90%   Direction: 40°NE
Pressure: 30.4"   Gusts: NA
Location:  35.2494°N, 92.313°W
Report Text: KLRF 280658Z AUTO 04001KT 7SM CLR M01/M03 A3040 RMK AO2 SLP299 T10151029 $
Loading
Personal Weather Stations






























Interactive Weather Map New forecast layout! Learn more

10-Day Weather Forecast

Advertisements
Track Severe Weather on mobile